James M Cox Dayton International Airport
KDAY : now visible

Airfield :











YOU CAN JOIN US ON...

 
LOGIN :

Register | Disclaimer

   EN    FR    IT 

 









Legend :    VFR   Marginal VFR   IFR   Intensive IFR   Very Intensive IFR
Visi :
Ceiling :
>= 8 km
>= 3000ft
5 to 8 km
1000 to 3000 ft
1500m to 5 km
500 to 1000 ft
800 to 1500m
200 to 500 ft
< 800m
< 200 ft
Symbols :   Thunderstorms  Fog  Heavy snow  Heavy precipitations  Wind > 20 kt






- Airport Elevation : 1009 ft
- IATA code : DAY


KDAY - James M Cox Dayton International

CURRENT METAR :
  • 280356Z 12004KT 10SM SCT070 BKN085 23/18 A2999 RMK AO2 SLP146 T02280183

EXPIRED METARs :
  • 280256Z 15004KT 10SM OVC070 23/19 A3000 RMK AO2 SLP150 60000 T02330189 53003
  • 280156Z 13003KT 10SM BKN080 23/19 A2999 RMK AO2 RAB01E16 SLP148 P0000 T02280194

TAF KDAY
Valid from the 28 at 00:00 until the 29 at 00:00 UTC


272320Z 2800/2824 19008KT P6SM VCSH SCT060 BKN100
FM280200 14005KT P6SM VCSH SCT060
FM281100 15005KT P6SM VCSH SCT025 BKN035
FM281600 19010KT P6SM VCSH SCT035 BKN050
KZID FIR / North America



MET'MAP, your aeronautical weather chart ! - Copyright ORBIFLY December 2007 - Disclaimer

ORBIFLY MET'MAP TEAM :

Programming & Development : Alexandra Zaïnal
Concept & original design : Baudouin d'Aumeries
Assistance for programming : Marc-Olivier Méhu
Technical & hardware support : Manuel Goepfert

Contact : metmap@orbifly.com




SOURCES & CREDITS :

   NOAA       Earth
Advisory